createdAt,value
2023-03-29T00:00:08.973Z,101863.31
2023-03-29T00:00:23.041Z,101868.56
2023-03-29T00:01:00.209Z,101874.66
2023-03-29T00:01:35.652Z,101870.28
2023-03-29T00:01:48.091Z,101867.66
2023-03-29T00:02:02.888Z,101860.69
2023-03-29T00:02:16.907Z,101867.66
2023-03-29T00:02:33.569Z,101866.78
2023-03-29T00:02:48.600Z,101860.69
2023-03-29T00:03:03.445Z,101867.66
2023-03-29T00:03:16.656Z,101866.78
2023-03-29T00:03:30.818Z,101869.41
2023-03-29T00:03:45.904Z,101862.41
2023-03-29T00:04:02.426Z,101860.69
2023-03-29T00:04:19.781Z,101863.25
2023-03-29T00:04:34.180Z,101860.63
2023-03-29T00:04:48.103Z,101861.53
2023-03-29T00:05:02.193Z,101861.53
2023-03-29T00:05:16.300Z,101858.91
2023-03-29T00:05:29.206Z,101865.88
2023-03-29T00:05:41.851Z,101867.63
2023-03-29T00:06:03.104Z,101863.25
2023-03-29T00:06:22.459Z,101860.63
2023-03-29T00:06:35.385Z,101863.25
2023-03-29T00:06:48.264Z,101858.00
2023-03-29T00:07:04.333Z,101860.63
2023-03-29T00:07:17.157Z,101857.16
2023-03-29T00:07:33.589Z,101859.78
2023-03-29T00:07:46.521Z,101852.81
2023-03-29T00:08:01.821Z,101863.31
2023-03-29T00:08:14.777Z,101859.78
2023-03-29T00:08:27.683Z,101855.44
2023-03-29T00:08:40.296Z,101856.28
2023-03-29T00:08:54.146Z,101854.53
2023-03-29T00:09:09.722Z,101854.53
2023-03-29T00:09:22.327Z,101858.91
2023-03-29T00:09:34.951Z,101861.53
2023-03-29T00:09:47.889Z,101858.06
2023-03-29T00:10:01.388Z,101855.38
2023-03-29T00:10:14.097Z,101856.28
2023-03-29T00:10:27.354Z,101858.00
2023-03-29T00:10:41.058Z,101861.53
2023-03-29T00:10:56.794Z,101863.25
2023-03-29T00:11:09.417Z,101860.63
2023-03-29T00:11:22.544Z,101860.63
2023-03-29T00:11:35.323Z,101857.16
2023-03-29T00:11:47.925Z,101854.53
2023-03-29T00:12:01.206Z,101860.63
2023-03-29T00:12:14.923Z,101856.28
2023-03-29T00:12:27.650Z,101857.13
2023-03-29T00:12:41.000Z,101855.38
2023-03-29T00:12:54.050Z,101856.28
2023-03-29T00:13:06.684Z,101855.38
2023-03-29T00:13:19.295Z,101858.91
2023-03-29T00:13:31.932Z,101860.63
2023-03-29T00:13:45.561Z,101860.63
2023-03-29T00:13:58.189Z,101858.91
2023-03-29T00:14:11.158Z,101858.00
2023-03-29T00:14:23.757Z,101857.16
2023-03-29T00:14:36.414Z,101865.88
2023-03-29T00:14:49.023Z,101860.63
2023-03-29T00:15:02.043Z,101861.53
2023-03-29T00:15:15.921Z,101860.63
2023-03-29T00:15:28.668Z,101856.28
2023-03-29T00:15:42.388Z,101853.66
2023-03-29T00:15:56.275Z,101856.28
2023-03-29T00:16:09.589Z,101863.31
2023-03-29T00:16:22.375Z,101864.16
2023-03-29T00:16:35.334Z,101857.16
2023-03-29T00:16:49.065Z,101865.03
2023-03-29T00:17:03.454Z,101862.47
2023-03-29T00:17:16.478Z,101865.16
2023-03-29T00:17:29.240Z,101859.91
2023-03-29T00:17:41.922Z,101864.25
2023-03-29T00:17:54.662Z,101859.00
2023-03-29T00:18:08.304Z,101859.00
2023-03-29T00:18:21.242Z,101862.53
2023-03-29T00:18:33.873Z,101865.16
2023-03-29T00:18:46.486Z,101859.91
2023-03-29T00:18:59.226Z,101864.28
2023-03-29T00:19:11.837Z,101866.00
2023-03-29T00:19:24.461Z,101861.66
2023-03-29T00:19:37.034Z,101863.38
2023-03-29T00:19:50.651Z,101864.28
2023-03-29T00:20:06.777Z,101868.66
2023-03-29T00:20:19.894Z,101862.53
2023-03-29T00:20:32.865Z,101860.81
2023-03-29T00:20:45.569Z,101863.47
2023-03-29T00:20:59.564Z,101861.69
2023-03-29T00:21:12.639Z,101865.16
2023-03-29T00:21:26.682Z,101865.19
2023-03-29T00:21:39.339Z,101864.31
2023-03-29T00:21:52.001Z,101861.72
2023-03-29T00:22:06.029Z,101863.44
2023-03-29T00:22:18.679Z,101864.31
2023-03-29T00:22:31.522Z,101864.31
2023-03-29T00:22:46.794Z,101861.69
2023-03-29T00:22:59.408Z,101871.34
2023-03-29T00:23:12.154Z,101863.47
2023-03-29T00:23:25.354Z,101866.97
2023-03-29T00:23:37.987Z,101865.22
2023-03-29T00:23:50.745Z,101859.09
2023-03-29T00:24:05.000Z,101860.84
2023-03-29T00:24:17.595Z,101860.84
2023-03-29T00:24:30.326Z,101867.84
2023-03-29T00:24:42.898Z,101863.47
2023-03-29T00:24:55.785Z,101867.00
2023-03-29T00:25:08.890Z,101863.53
2023-03-29T00:25:21.536Z,101871.41
2023-03-29T00:25:35.165Z,101871.44
2023-03-29T00:25:47.767Z,101867.91
2023-03-29T00:26:00.413Z,101869.69
2023-03-29T00:26:13.041Z,101867.91
2023-03-29T00:26:25.870Z,101865.28
2023-03-29T00:26:38.477Z,101862.66
2023-03-29T00:26:51.154Z,101864.44
2023-03-29T00:27:03.931Z,101864.44
2023-03-29T00:27:17.615Z,101874.91
2023-03-29T00:27:30.386Z,101865.28
2023-03-29T00:27:42.997Z,101864.44
2023-03-29T00:27:56.018Z,101867.97
2023-03-29T00:28:08.647Z,101867.97
2023-03-29T00:28:21.290Z,101869.69
2023-03-29T00:28:33.942Z,101861.81
2023-03-29T00:28:47.532Z,101867.97
2023-03-29T00:29:00.219Z,101868.84
2023-03-29T00:29:12.918Z,101869.72
2023-03-29T00:29:25.757Z,101868.84
2023-03-29T00:29:38.388Z,101869.75
2023-03-29T00:29:50.992Z,101869.75
2023-03-29T00:30:05.614Z,101867.13
2023-03-29T00:30:18.320Z,101871.50
2023-03-29T00:30:31.267Z,101874.13
2023-03-29T00:30:44.856Z,101871.50
2023-03-29T00:31:06.891Z,101869.75
2023-03-29T00:31:20.059Z,101874.13
2023-03-29T00:31:32.835Z,101871.50
2023-03-29T00:31:52.430Z,101873.28
2023-03-29T00:32:07.740Z,101870.66
2023-03-29T00:32:20.323Z,101875.06
2023-03-29T00:32:34.085Z,101872.44
2023-03-29T00:32:47.178Z,101870.72
2023-03-29T00:32:59.902Z,101868.97
2023-03-29T00:33:12.668Z,101871.59
2023-03-29T00:33:25.309Z,101868.16
2023-03-29T00:33:39.606Z,101870.78
2023-03-29T00:33:52.265Z,101869.88
2023-03-29T00:34:04.889Z,101870.78
2023-03-29T00:34:17.520Z,101873.41
2023-03-29T00:34:31.008Z,101869.88
2023-03-29T00:34:46.000Z,101869.03
2023-03-29T00:35:00.815Z,101867.31
2023-03-29T00:35:14.516Z,101872.53
2023-03-29T00:35:27.267Z,101868.16
2023-03-29T00:35:40.820Z,101863.84
2023-03-29T00:35:53.636Z,101871.69
2023-03-29T00:36:08.640Z,101868.22
2023-03-29T00:36:22.192Z,101868.22
2023-03-29T00:36:35.877Z,101862.97
2023-03-29T00:36:50.944Z,101869.94
2023-03-29T00:37:04.218Z,101861.22
2023-03-29T00:37:16.900Z,101858.59
2023-03-29T00:37:30.036Z,101871.72
2023-03-29T00:37:42.693Z,101863.88
2023-03-29T00:37:55.323Z,101862.97
2023-03-29T00:38:09.403Z,101868.22
2023-03-29T00:38:22.195Z,101870.00
2023-03-29T00:38:35.161Z,101863.88
2023-03-29T00:38:48.030Z,101863.03
2023-03-29T00:39:00.660Z,101867.38
2023-03-29T00:39:13.346Z,101865.66
2023-03-29T00:39:28.011Z,101867.41
2023-03-29T00:39:42.221Z,101862.19
2023-03-29T00:39:54.847Z,101863.03
2023-03-29T00:40:10.432Z,101868.28
2023-03-29T00:40:23.143Z,101862.13
2023-03-29T00:40:41.997Z,101858.66
2023-03-29T00:40:54.646Z,101861.28
2023-03-29T00:41:09.257Z,101863.03
2023-03-29T00:41:21.880Z,101859.56
2023-03-29T00:41:34.739Z,101867.44
2023-03-29T00:41:48.521Z,101858.69
2023-03-29T00:42:01.544Z,101861.31
2023-03-29T00:42:15.456Z,101864.81
2023-03-29T00:42:28.104Z,101862.19
2023-03-29T00:42:45.763Z,101858.72
2023-03-29T00:42:58.482Z,101860.47
2023-03-29T00:43:11.872Z,101868.34
2023-03-29T00:43:25.050Z,101862.25
2023-03-29T00:43:56.089Z,101860.50
2023-03-29T00:44:45.437Z,101858.75
2023-03-29T00:45:01.467Z,101863.16
2023-03-29T00:45:20.011Z,101857.06
2023-03-29T00:45:35.866Z,101858.75
2023-03-29T00:45:49.453Z,101854.38
2023-03-29T00:46:02.178Z,101852.66
2023-03-29T00:46:15.424Z,101858.75
2023-03-29T00:46:29.959Z,101857.06
2023-03-29T00:46:42.694Z,101852.66
2023-03-29T00:46:55.443Z,101865.78
2023-03-29T00:47:09.400Z,101857.06
2023-03-29T00:47:28.007Z,101853.59
2023-03-29T00:47:44.667Z,101857.06
2023-03-29T00:48:00.367Z,101851.81
2023-03-29T00:48:15.998Z,101857.06
2023-03-29T00:48:30.213Z,101848.34
2023-03-29T00:48:43.095Z,101851.84
2023-03-29T00:49:02.627Z,101856.22
2023-03-29T00:49:15.402Z,101852.72
2023-03-29T00:49:28.040Z,101854.44
2023-03-29T00:49:40.643Z,101844.00
2023-03-29T00:49:54.680Z,101852.72
2023-03-29T00:50:14.389Z,101851.84
2023-03-29T00:50:32.175Z,101841.41
2023-03-29T00:50:51.380Z,101852.72
2023-03-29T00:51:10.036Z,101844.88
2023-03-29T00:51:27.522Z,101844.00
2023-03-29T00:51:41.513Z,101845.75
2023-03-29T00:51:55.236Z,101850.13
2023-03-29T00:52:08.471Z,101846.63
2023-03-29T00:52:22.746Z,101838.78
2023-03-29T00:52:36.199Z,101849.25
2023-03-29T00:52:53.594Z,101850.16
2023-03-29T00:53:10.019Z,101849.31
2023-03-29T00:53:28.654Z,101850.16
2023-03-29T00:53:45.781Z,101844.97
2023-03-29T00:54:01.742Z,101840.56
2023-03-29T00:54:18.773Z,101843.22
2023-03-29T00:54:32.937Z,101841.44
2023-03-29T00:54:46.544Z,101844.97
2023-03-29T00:55:05.274Z,101843.22
2023-03-29T00:55:22.887Z,101844.97
2023-03-29T00:55:39.040Z,101848.47
2023-03-29T00:55:57.161Z,101841.50
2023-03-29T00:56:14.174Z,101838.88
2023-03-29T00:56:30.006Z,101840.63
2023-03-29T00:56:46.998Z,101846.75
2023-03-29T00:57:04.075Z,101844.13
2023-03-29T00:57:20.689Z,101838.03
2023-03-29T00:57:34.164Z,101839.78
2023-03-29T00:57:49.361Z,101841.50
2023-03-29T00:58:05.025Z,101847.66
2023-03-29T00:58:22.980Z,101838.91
2023-03-29T00:58:39.402Z,101839.78
2023-03-29T00:58:57.331Z,101844.16
2023-03-29T00:59:14.630Z,101846.78
2023-03-29T00:59:32.917Z,101841.53
2023-03-29T00:59:46.947Z,101837.16
2023-03-29T01:00:01.664Z,101837.16
2023-03-29T01:00:20.900Z,101843.31
2023-03-29T01:00:39.219Z,101841.56
2023-03-29T01:00:57.921Z,101845.94
2023-03-29T01:01:19.414Z,101839.84
2023-03-29T01:01:38.199Z,101843.31
2023-03-29T01:01:55.304Z,101847.69
2023-03-29T01:02:09.953Z,101840.69
2023-03-29T01:02:26.168Z,101844.16
2023-03-29T01:02:42.046Z,101834.56
2023-03-29T01:02:59.752Z,101837.22
2023-03-29T01:03:25.062Z,101843.31
2023-03-29T01:03:46.576Z,101831.06
2023-03-29T01:04:03.856Z,101831.94
2023-03-29T01:04:19.851Z,101839.78
2023-03-29T01:04:37.643Z,101833.69
2023-03-29T01:04:53.692Z,101828.44
2023-03-29T01:05:12.003Z,101833.69
2023-03-29T01:05:29.592Z,101831.94
2023-03-29T01:05:45.669Z,101829.31
2023-03-29T01:06:01.886Z,101833.69
2023-03-29T01:06:19.310Z,101828.44
2023-03-29T01:06:39.323Z,101835.44
2023-03-29T01:06:58.489Z,101830.22
2023-03-29T01:07:18.076Z,101833.69
2023-03-29T01:07:36.620Z,101832.84
2023-03-29T01:07:58.068Z,101824.97
2023-03-29T01:08:18.423Z,101835.47
2023-03-29T01:08:35.037Z,101832.84
2023-03-29T01:08:51.562Z,101828.44
2023-03-29T01:09:09.295Z,101832.84
2023-03-29T01:09:27.042Z,101840.69
2023-03-29T01:09:43.384Z,101824.09
2023-03-29T01:10:01.464Z,101829.34
2023-03-29T01:10:19.111Z,101824.97
2023-03-29T01:10:36.231Z,101826.72
2023-03-29T01:10:54.718Z,101827.59
2023-03-29T01:11:14.147Z,101830.22
2023-03-29T01:11:31.822Z,101830.22
2023-03-29T01:11:48.768Z,101825.88
2023-03-29T01:12:08.959Z,101833.75
2023-03-29T01:12:26.637Z,101834.59
2023-03-29T01:12:45.578Z,101827.59
2023-03-29T01:13:04.990Z,101835.47
2023-03-29T01:13:21.889Z,101822.41
2023-03-29T01:13:39.445Z,101833.75
2023-03-29T01:13:58.926Z,101832.03
2023-03-29T01:14:20.001Z,101832.03
2023-03-29T01:14:38.657Z,101827.66
2023-03-29T01:14:57.041Z,101827.66
2023-03-29T01:15:11.813Z,101837.28
2023-03-29T01:15:27.751Z,101832.03
2023-03-29T01:15:44.201Z,101832.88
2023-03-29T01:16:00.075Z,101828.56
2023-03-29T01:16:14.649Z,101833.78
2023-03-29T01:16:30.366Z,101831.16
2023-03-29T01:16:43.315Z,101830.28
2023-03-29T01:16:56.149Z,101833.78
2023-03-29T01:17:11.037Z,101832.03
2023-03-29T01:17:25.608Z,101829.41
2023-03-29T01:17:38.817Z,101832.94
2023-03-29T01:17:53.856Z,101832.94
2023-03-29T01:18:06.642Z,101830.31
2023-03-29T01:18:22.035Z,101832.06
2023-03-29T01:18:35.210Z,101832.94
2023-03-29T01:18:48.334Z,101830.31
2023-03-29T01:19:02.621Z,101831.19
2023-03-29T01:19:21.460Z,101827.75
2023-03-29T01:19:40.725Z,101827.75
2023-03-29T01:19:59.867Z,101826.88
2023-03-29T01:20:17.452Z,101831.22
2023-03-29T01:20:49.162Z,101823.38
2023-03-29T01:21:16.258Z,101832.13
2023-03-29T01:21:33.529Z,101831.28
2023-03-29T01:21:51.650Z,101826.03
2023-03-29T01:22:19.965Z,101829.50
2023-03-29T01:22:42.683Z,101826.91
2023-03-29T01:23:07.524Z,101827.75
2023-03-29T01:23:34.878Z,101830.38
2023-03-29T01:24:14.054Z,101830.38
2023-03-29T01:24:51.154Z,101833.03
2023-03-29T01:25:12.582Z,101832.13
2023-03-29T01:25:35.904Z,101823.41
2023-03-29T01:25:55.693Z,101830.41
2023-03-29T01:26:17.074Z,101828.66
2023-03-29T01:26:40.946Z,101832.13
2023-03-29T01:27:05.341Z,101822.63
2023-03-29T01:27:23.546Z,101828.69
2023-03-29T01:27:53.380Z,101825.19
2023-03-29T01:28:10.048Z,101828.69
2023-03-29T01:28:28.464Z,101829.56
2023-03-29T01:28:47.126Z,101830.47
2023-03-29T01:29:04.652Z,101833.09
2023-03-29T01:29:25.420Z,101828.69
2023-03-29T01:29:45.568Z,101835.72
2023-03-29T01:30:04.204Z,101830.47
2023-03-29T01:30:22.217Z,101829.56
2023-03-29T01:30:41.904Z,101827.84
2023-03-29T01:31:01.995Z,101830.47
2023-03-29T01:31:21.966Z,101831.34
2023-03-29T01:31:39.755Z,101828.72
2023-03-29T01:31:56.418Z,101828.72
2023-03-29T01:32:13.824Z,101830.50
2023-03-29T01:32:35.389Z,101827.84
2023-03-29T01:32:55.673Z,101830.47
2023-03-29T01:33:13.853Z,101825.22
2023-03-29T01:33:31.705Z,101830.47
2023-03-29T01:33:49.614Z,101827.00
2023-03-29T01:34:08.706Z,101827.84
2023-03-29T01:34:25.899Z,101826.09
2023-03-29T01:34:44.074Z,101833.94
2023-03-29T01:35:01.434Z,101832.22
2023-03-29T01:35:19.450Z,101829.59
2023-03-29T01:35:39.209Z,101833.09
2023-03-29T01:35:57.804Z,101827.00
2023-03-29T01:36:16.510Z,101833.09
2023-03-29T01:36:37.226Z,101829.63
2023-03-29T01:36:54.865Z,101836.63
2023-03-29T01:37:13.576Z,101834.84
2023-03-29T01:37:32.440Z,101833.13
2023-03-29T01:37:51.066Z,101833.13
2023-03-29T01:38:08.749Z,101838.38
2023-03-29T01:38:25.912Z,101834.00
2023-03-29T01:38:44.234Z,101837.53
2023-03-29T01:38:59.101Z,101834.91
2023-03-29T01:39:12.004Z,101838.38
2023-03-29T01:39:24.917Z,101834.91
2023-03-29T01:39:37.550Z,101838.38
2023-03-29T01:39:50.776Z,101845.38
2023-03-29T01:40:06.017Z,101840.13
2023-03-29T01:40:18.788Z,101841.91
2023-03-29T01:40:32.931Z,101840.16
2023-03-29T01:40:45.545Z,101835.75
2023-03-29T01:40:58.415Z,101841.91
2023-03-29T01:41:12.273Z,101842.75
2023-03-29T01:41:35.779Z,101842.81
2023-03-29T01:42:00.695Z,101837.53
2023-03-29T01:42:28.945Z,101842.81
2023-03-29T01:42:48.364Z,101841.94
2023-03-29T01:43:10.942Z,101842.84
2023-03-29T01:43:28.283Z,101842.84
2023-03-29T01:43:46.703Z,101840.22
2023-03-29T01:44:04.717Z,101833.28
2023-03-29T01:44:22.606Z,101845.47
2023-03-29T01:44:43.590Z,101846.38
2023-03-29T01:45:04.345Z,101841.13
2023-03-29T01:45:24.941Z,101842.03
2023-03-29T01:45:45.587Z,101839.41
2023-03-29T01:46:05.840Z,101838.56
2023-03-29T01:46:28.740Z,101848.13
2023-03-29T01:46:46.937Z,101843.78
2023-03-29T01:47:08.830Z,101846.41
2023-03-29T01:47:29.806Z,101844.66
2023-03-29T01:47:48.064Z,101844.66
2023-03-29T01:48:05.484Z,101845.53
2023-03-29T01:48:23.988Z,101850.78
2023-03-29T01:48:46.563Z,101844.66
2023-03-29T01:49:04.623Z,101840.31
2023-03-29T01:49:24.688Z,101843.81
2023-03-29T01:49:42.245Z,101842.94
2023-03-29T01:50:05.574Z,101842.97
2023-03-29T01:50:24.885Z,101836.84
2023-03-29T01:50:43.372Z,101843.84
2023-03-29T01:51:04.618Z,101843.84
2023-03-29T01:51:22.765Z,101842.97
2023-03-29T01:51:40.165Z,101837.75
2023-03-29T01:51:57.408Z,101838.59
2023-03-29T01:52:17.056Z,101836.88
2023-03-29T01:52:35.788Z,101840.38
2023-03-29T01:52:53.093Z,101834.25
2023-03-29T01:53:10.337Z,101842.97
2023-03-29T01:53:29.896Z,101842.13
2023-03-29T01:53:47.120Z,101838.59
2023-03-29T01:54:06.574Z,101835.97
2023-03-29T01:54:23.303Z,101839.50
2023-03-29T01:54:39.166Z,101840.38
2023-03-29T01:54:56.392Z,101839.50
2023-03-29T01:55:13.129Z,101836.00
2023-03-29T01:55:32.448Z,101836.88
2023-03-29T01:55:50.072Z,101834.25
2023-03-29T01:56:07.702Z,101834.25
2023-03-29T01:56:24.919Z,101838.59
2023-03-29T01:56:41.217Z,101837.75
2023-03-29T01:56:57.125Z,101839.50
2023-03-29T01:57:12.722Z,101835.13
2023-03-29T01:57:26.455Z,101841.22
2023-03-29T01:57:42.488Z,101837.75
2023-03-29T01:57:56.653Z,101829.03
2023-03-29T01:58:13.330Z,101834.25
2023-03-29T01:58:31.429Z,101834.25
2023-03-29T01:58:48.470Z,101839.50
2023-03-29T01:59:04.252Z,101833.38
2023-03-29T01:59:22.251Z,101832.50
2023-03-29T01:59:39.420Z,101836.88
2023-03-29T01:59:55.233Z,101835.13
2023-03-29T02:00:11.397Z,101835.13
2023-03-29T02:00:27.951Z,101834.25
2023-03-29T02:00:43.826Z,101839.50
2023-03-29T02:00:58.171Z,101839.50
2023-03-29T02:01:17.704Z,101835.13
2023-03-29T02:01:34.569Z,101831.66
2023-03-29T02:01:51.770Z,101841.25
2023-03-29T02:02:11.328Z,101837.78
2023-03-29T02:02:27.323Z,101841.25
2023-03-29T02:02:43.300Z,101836.03
2023-03-29T02:03:00.754Z,101837.78
2023-03-29T02:03:17.470Z,101836.94
2023-03-29T02:03:33.956Z,101836.06
2023-03-29T02:03:49.979Z,101837.78
2023-03-29T02:04:07.319Z,101842.16
2023-03-29T02:04:25.679Z,101837.78
2023-03-29T02:04:41.764Z,101836.91
2023-03-29T02:04:57.498Z,101838.69
2023-03-29T02:05:12.584Z,101839.53
2023-03-29T02:05:26.841Z,101840.41
2023-03-29T02:05:41.029Z,101839.53
2023-03-29T02:05:55.322Z,101833.44
2023-03-29T02:06:09.943Z,101841.25
2023-03-29T02:06:27.412Z,101835.16
2023-03-29T02:06:41.838Z,101836.91
2023-03-29T02:06:56.628Z,101841.31
2023-03-29T02:07:10.781Z,101837.78
2023-03-29T02:07:26.693Z,101837.78
2023-03-29T02:07:40.710Z,101834.31
2023-03-29T02:07:55.675Z,101834.31
2023-03-29T02:08:10.894Z,101836.94
2023-03-29T02:08:24.956Z,101832.59
2023-03-29T02:08:39.181Z,101834.34
2023-03-29T02:08:53.357Z,101838.69
2023-03-29T02:09:07.232Z,101840.44
2023-03-29T02:09:21.224Z,101839.56
2023-03-29T02:09:37.769Z,101833.44
2023-03-29T02:09:52.717Z,101837.81
2023-03-29T02:10:08.013Z,101839.59
2023-03-29T02:10:21.860Z,101837.81
2023-03-29T02:10:37.092Z,101836.97
2023-03-29T02:10:50.334Z,101837.81
2023-03-29T02:11:04.705Z,101836.09
2023-03-29T02:11:18.331Z,101832.59
2023-03-29T02:11:30.987Z,101833.50
2023-03-29T02:11:45.266Z,101832.59
2023-03-29T02:12:00.538Z,101837.81
2023-03-29T02:12:16.704Z,101830.88
2023-03-29T02:12:29.971Z,101839.59
2023-03-29T02:12:42.691Z,101832.59
2023-03-29T02:12:56.068Z,101828.25
2023-03-29T02:13:10.133Z,101832.59
2023-03-29T02:13:23.980Z,101843.06
2023-03-29T02:13:37.106Z,101843.97
2023-03-29T02:13:49.810Z,101840.44
2023-03-29T02:14:02.546Z,101842.19
2023-03-29T02:14:15.537Z,101839.59
2023-03-29T02:14:29.466Z,101834.34
2023-03-29T02:14:43.259Z,101838.72
2023-03-29T02:14:57.851Z,101834.34
2023-03-29T02:15:13.034Z,101843.06
2023-03-29T02:15:25.856Z,101835.22
2023-03-29T02:15:38.748Z,101838.72
2023-03-29T02:15:51.421Z,101843.06
2023-03-29T02:16:09.607Z,101842.19
2023-03-29T02:16:22.464Z,101838.69
2023-03-29T02:16:35.963Z,101837.81
2023-03-29T02:16:49.701Z,101846.53
2023-03-29T02:17:16.930Z,101841.31
2023-03-29T02:17:30.624Z,101847.44
2023-03-29T02:17:46.394Z,101843.91
2023-03-29T02:17:59.517Z,101838.69
2023-03-29T02:18:13.922Z,101846.53
2023-03-29T02:18:26.597Z,101847.44
2023-03-29T02:18:40.372Z,101839.56
2023-03-29T02:18:56.402Z,101840.44
2023-03-29T02:19:11.649Z,101839.59
2023-03-29T02:19:25.369Z,101841.34
2023-03-29T02:19:39.286Z,101846.56
2023-03-29T02:19:58.112Z,101844.81
2023-03-29T02:20:17.373Z,101844.84
2023-03-29T02:20:32.561Z,101844.84
2023-03-29T02:20:48.778Z,101837.91
2023-03-29T02:21:03.420Z,101842.25
2023-03-29T02:21:24.143Z,101844.00
2023-03-29T02:21:43.543Z,101837.91
2023-03-29T02:22:01.962Z,101844.03
2023-03-29T02:22:16.610Z,101839.66
2023-03-29T02:22:37.147Z,101841.41
2023-03-29T02:22:57.642Z,101841.41
2023-03-29T02:23:21.273Z,101839.66
2023-03-29T02:23:37.448Z,101848.41
2023-03-29T02:23:54.359Z,101845.78
2023-03-29T02:24:11.327Z,101847.50
2023-03-29T02:24:26.502Z,101845.78
2023-03-29T02:24:42.433Z,101845.78
2023-03-29T02:24:59.404Z,101842.31
2023-03-29T02:25:13.011Z,101840.56
2023-03-29T02:25:26.080Z,101842.31
2023-03-29T02:25:38.915Z,101843.16
2023-03-29T02:25:54.781Z,101848.41
2023-03-29T02:26:08.957Z,101842.31
2023-03-29T02:26:22.608Z,101846.66
2023-03-29T02:26:36.220Z,101849.28
2023-03-29T02:26:49.355Z,101844.03
2023-03-29T02:27:02.584Z,101842.31
2023-03-29T02:27:15.206Z,101848.41
2023-03-29T02:27:30.104Z,101845.78
2023-03-29T02:27:42.795Z,101841.41
2023-03-29T02:27:56.382Z,101839.69
2023-03-29T02:28:10.544Z,101841.41
2023-03-29T02:28:24.702Z,101849.28
2023-03-29T02:28:37.941Z,101842.31
2023-03-29T02:28:52.865Z,101848.41
2023-03-29T02:29:05.660Z,101843.16
2023-03-29T02:29:18.293Z,101840.56
2023-03-29T02:29:31.254Z,101840.56
2023-03-29T02:29:46.893Z,101839.69
2023-03-29T02:29:59.661Z,101841.44
2023-03-29T02:30:13.613Z,101843.22
2023-03-29T02:30:31.752Z,101844.06
2023-03-29T02:30:53.514Z,101845.84
2023-03-29T02:31:12.258Z,101838.00
2023-03-29T02:31:29.404Z,101845.00
2023-03-29T02:31:48.829Z,101835.44
2023-03-29T02:32:09.794Z,101838.03
2023-03-29T02:32:30.540Z,101835.47
2023-03-29T02:32:50.263Z,101839.78
2023-03-29T02:33:10.805Z,101838.06
2023-03-29T02:33:31.347Z,101840.69
2023-03-29T02:33:52.239Z,101845.94
2023-03-29T02:34:11.316Z,101837.19
2023-03-29T02:34:29.683Z,101838.94
2023-03-29T02:34:49.382Z,101834.56
2023-03-29T02:35:06.686Z,101839.78
2023-03-29T02:35:26.849Z,101843.28
2023-03-29T02:35:45.766Z,101841.56
2023-03-29T02:36:03.720Z,101838.94
2023-03-29T02:36:20.939Z,101846.75
2023-03-29T02:36:40.736Z,101842.38
2023-03-29T02:37:00.137Z,101838.03
2023-03-29T02:37:18.871Z,101845.84
2023-03-29T02:37:34.509Z,101838.03
2023-03-29T02:37:49.689Z,101843.28
2023-03-29T02:38:05.977Z,101845.84
2023-03-29T02:38:20.767Z,101846.75
2023-03-29T02:38:35.234Z,101847.63
2023-03-29T02:38:47.897Z,101850.22
2023-03-29T02:39:04.681Z,101842.38
2023-03-29T02:39:19.320Z,101840.63
2023-03-29T02:39:34.720Z,101847.63
2023-03-29T02:39:48.593Z,101846.75
2023-03-29T02:40:12.910Z,101844.13
2023-03-29T02:40:26.164Z,101843.25
2023-03-29T02:40:40.870Z,101851.09
2023-03-29T02:40:56.020Z,101841.53
2023-03-29T02:41:10.850Z,101847.63
2023-03-29T02:41:25.546Z,101841.53
2023-03-29T02:41:40.107Z,101842.38
2023-03-29T02:41:54.187Z,101850.22
2023-03-29T02:42:07.821Z,101845.00
2023-03-29T02:42:22.529Z,101846.72
2023-03-29T02:42:35.850Z,101847.59
2023-03-29T02:42:49.216Z,101845.84
2023-03-29T02:43:03.305Z,101846.72
2023-03-29T02:43:18.626Z,101846.72
2023-03-29T02:43:32.890Z,101846.72
2023-03-29T02:43:47.689Z,101849.34
2023-03-29T02:44:02.245Z,101842.38
2023-03-29T02:44:18.797Z,101845.84
2023-03-29T02:44:33.569Z,101847.63
2023-03-29T02:44:50.675Z,101846.75
2023-03-29T02:45:06.116Z,101844.13
2023-03-29T02:45:19.788Z,101849.38
2023-03-29T02:45:33.675Z,101846.75
2023-03-29T02:45:47.293Z,101840.66
2023-03-29T02:46:01.781Z,101840.66
2023-03-29T02:46:16.586Z,101846.78
2023-03-29T02:46:30.214Z,101850.25
2023-03-29T02:46:44.013Z,101848.53
2023-03-29T02:47:00.574Z,101845.06
2023-03-29T02:47:19.082Z,101844.19
2023-03-29T02:47:35.861Z,101842.44
2023-03-29T02:47:53.628Z,101844.19
2023-03-29T02:48:12.130Z,101842.47
2023-03-29T02:48:27.214Z,101843.34
2023-03-29T02:48:41.096Z,101837.25
2023-03-29T02:48:55.715Z,101836.38
2023-03-29T02:49:10.065Z,101839.84
2023-03-29T02:49:23.556Z,101840.72
2023-03-29T02:49:37.178Z,101834.63
2023-03-29T02:49:50.170Z,101842.47
2023-03-29T02:50:03.107Z,101839.84
2023-03-29T02:50:16.621Z,101838.13
2023-03-29T02:50:35.420Z,101838.13
2023-03-29T02:50:51.209Z,101836.38
2023-03-29T02:51:10.445Z,101840.72
2023-03-29T02:51:27.599Z,101833.75
2023-03-29T02:51:40.204Z,101834.63
2023-03-29T02:51:56.093Z,101836.38
2023-03-29T02:52:13.225Z,101839.84
2023-03-29T02:52:33.447Z,101836.38
2023-03-29T02:52:54.035Z,101838.13
2023-03-29T02:53:13.326Z,101845.09
2023-03-29T02:53:30.788Z,101838.09
2023-03-29T02:53:49.857Z,101837.25
2023-03-29T02:54:06.770Z,101837.25
2023-03-29T02:54:26.003Z,101838.09
2023-03-29T02:54:43.264Z,101838.97
2023-03-29T02:54:56.159Z,101834.63
2023-03-29T02:55:15.082Z,101839.88
2023-03-29T02:55:31.383Z,101845.91
2023-03-29T02:55:46.947Z,101836.34
2023-03-29T02:56:02.294Z,101838.06
2023-03-29T02:56:14.978Z,101838.09
2023-03-29T02:56:27.734Z,101840.69
2023-03-29T02:56:43.802Z,101831.97
2023-03-29T02:56:58.393Z,101835.47
2023-03-29T02:57:13.449Z,101835.47
2023-03-29T02:57:28.739Z,101839.81
2023-03-29T02:57:43.513Z,101838.97
2023-03-29T02:57:56.130Z,101838.06
2023-03-29T02:58:09.332Z,101833.72
2023-03-29T02:58:26.660Z,101843.31
2023-03-29T02:58:39.356Z,101836.34
2023-03-29T02:58:51.971Z,101835.50
2023-03-29T02:59:04.551Z,101838.06
2023-03-29T02:59:19.550Z,101836.34
2023-03-29T02:59:33.414Z,101830.25
2023-03-29T02:59:46.620Z,101839.88
2023-03-29T03:00:01.129Z,101838.09
2023-03-29T03:00:20.279Z,101835.50
2023-03-29T03:00:34.225Z,101838.09
2023-03-29T03:00:49.060Z,101840.72
2023-03-29T03:01:02.982Z,101840.72
2023-03-29T03:01:17.899Z,101833.75
2023-03-29T03:01:30.624Z,101842.47
2023-03-29T03:01:44.999Z,101843.34
2023-03-29T03:01:58.417Z,101839.00
2023-03-29T03:02:11.848Z,101837.25
2023-03-29T03:02:25.921Z,101839.84
2023-03-29T03:02:38.617Z,101839.00